sensor_id;sensor_type;location;lat;lon;timestamp;pressure;altitude;pressure_sealevel;temperature;humidity
57442;BME280;43284;47.042;15.498;2023-02-18T00:01:54;97642.13;;;3.48;80.86
57442;BME280;43284;47.042;15.498;2023-02-18T00:04:20;97640.44;;;3.44;81.64
57442;BME280;43284;47.042;15.498;2023-02-18T00:06:46;97638.75;;;3.42;81.62
57442;BME280;43284;47.042;15.498;2023-02-18T00:09:12;97620.69;;;3.42;81.44
57442;BME280;43284;47.042;15.498;2023-02-18T00:11:37;97624.09;;;3.44;81.92
57442;BME280;43284;47.042;15.498;2023-02-18T00:14:09;97630.94;;;3.46;81.57
57442;BME280;43284;47.042;15.498;2023-02-18T00:16:36;97624.94;;;3.44;81.29
57442;BME280;43284;47.042;15.498;2023-02-18T00:19:04;97622.28;;;3.49;81.61
57442;BME280;43284;47.042;15.498;2023-02-18T00:21:32;97632.63;;;3.50;81.40
57442;BME280;43284;47.042;15.498;2023-02-18T00:23:58;97640.41;;;3.47;81.83
57442;BME280;43284;47.042;15.498;2023-02-18T00:26:24;97642.97;;;3.47;81.77
57442;BME280;43284;47.042;15.498;2023-02-18T00:28:50;97638.69;;;3.46;82.04
57442;BME280;43284;47.042;15.498;2023-02-18T00:31:19;97643.03;;;3.43;81.98
57442;BME280;43284;47.042;15.498;2023-02-18T00:33:45;97626.59;;;3.50;82.25
57442;BME280;43284;47.042;15.498;2023-02-18T00:36:15;97642.97;;;3.47;82.17
57442;BME280;43284;47.042;15.498;2023-02-18T00:38:51;97642.78;;;3.63;82.30
57442;BME280;43284;47.042;15.498;2023-02-18T00:41:18;97642.78;;;3.63;82.51
57442;BME280;43284;47.042;15.498;2023-02-18T00:43:44;97647.16;;;3.58;82.08
57442;BME280;43284;47.042;15.498;2023-02-18T00:46:10;97643.75;;;3.57;81.67
57442;BME280;43284;47.042;15.498;2023-02-18T00:48:36;97655.81;;;3.57;81.77
57442;BME280;43284;47.042;15.498;2023-02-18T00:51:03;97645.47;;;3.55;82.25
57442;BME280;43284;47.042;15.498;2023-02-18T00:53:29;97642.00;;;3.59;81.94
57442;BME280;43284;47.042;15.498;2023-02-18T00:55:56;97641.06;;;3.63;81.83
57442;BME280;43284;47.042;15.498;2023-02-18T00:58:21;97639.34;;;3.62;81.78
57442;BME280;43284;47.042;15.498;2023-02-18T01:00:47;97640.19;;;3.63;82.19
57442;BME280;43284;47.042;15.498;2023-02-18T01:03:13;97645.41;;;3.60;81.68
57442;BME280;43284;47.042;15.498;2023-02-18T01:05:39;97636.84;;;3.56;82.13
57442;BME280;43284;47.042;15.498;2023-02-18T01:08:07;97638.66;;;3.49;82.88
57442;BME280;43284;47.042;15.498;2023-02-18T01:10:33;97636.13;;;3.46;82.62
57442;BME280;43284;47.042;15.498;2023-02-18T01:13:00;97630.91;;;3.49;82.40
57442;BME280;43284;47.042;15.498;2023-02-18T01:15:26;97631.78;;;3.50;82.11
57442;BME280;43284;47.042;15.498;2023-02-18T01:17:51;97623.97;;;3.51;83.01
57442;BME280;43284;47.042;15.498;2023-02-18T01:20:18;97628.38;;;3.46;82.51
57442;BME280;43284;47.042;15.498;2023-02-18T01:22:44;97632.75;;;3.40;82.57
57442;BME280;43284;47.042;15.498;2023-02-18T01:25:10;97635.41;;;3.35;82.96
57442;BME280;43284;47.042;15.498;2023-02-18T01:27:36;97631.91;;;3.38;82.93
57442;BME280;43284;47.042;15.498;2023-02-18T01:30:07;97644.00;;;3.34;82.58
57442;BME280;43284;47.042;15.498;2023-02-18T01:32:33;97631.16;;;3.29;83.21
57442;BME280;43284;47.042;15.498;2023-02-18T01:35:06;97642.50;;;3.19;83.47
57442;BME280;43284;47.042;15.498;2023-02-18T01:37:32;97645.91;;;3.20;83.46
57442;BME280;43284;47.042;15.498;2023-02-18T01:39:58;97632.16;;;3.18;83.82
57442;BME280;43284;47.042;15.498;2023-02-18T01:42:27;97631.34;;;3.14;82.96
57442;BME280;43284;47.042;15.498;2023-02-18T01:44:53;97627.06;;;3.12;83.00
57442;BME280;43284;47.042;15.498;2023-02-18T01:47:20;97633.91;;;3.13;83.33
57442;BME280;43284;47.042;15.498;2023-02-18T01:49:50;97629.72;;;3.04;82.74
57442;BME280;43284;47.042;15.498;2023-02-18T01:52:25;97626.25;;;3.06;83.48
57442;BME280;43284;47.042;15.498;2023-02-18T01:54:55;97625.38;;;3.11;82.82
57442;BME280;43284;47.042;15.498;2023-02-18T01:57:30;97627.06;;;3.10;83.18
57442;BME280;43284;47.042;15.498;2023-02-18T02:00:05;97634.06;;;3.00;83.92
57442;BME280;43284;47.042;15.498;2023-02-18T02:02:34;97630.56;;;3.06;83.68
57442;BME280;43284;47.042;15.498;2023-02-18T02:05:02;97615.09;;;3.03;83.16
57442;BME280;43284;47.042;15.498;2023-02-18T02:07:28;97609.88;;;3.06;83.50
57442;BME280;43284;47.042;15.498;2023-02-18T02:09:56;97609.94;;;3.04;83.30
57442;BME280;43284;47.042;15.498;2023-02-18T02:13:22;97625.44;;;3.01;83.81
57442;BME280;43284;47.042;15.498;2023-02-18T02:21:47;97607.16;;;3.20;83.11
57442;BME280;43284;47.042;15.498;2023-02-18T02:35:08;97589.09;;;3.20;83.57
57442;BME280;43284;47.042;15.498;2023-02-18T02:38:01;97592.59;;;3.14;82.94
57442;BME280;43284;47.042;15.498;2023-02-18T02:45:54;97584.94;;;3.06;83.05
57442;BME280;43284;47.042;15.498;2023-02-18T02:53:32;97578.13;;;2.99;83.31
57442;BME280;43284;47.042;15.498;2023-02-18T02:55:58;97574.69;;;2.97;83.13
57442;BME280;43284;47.042;15.498;2023-02-18T02:58:24;97582.50;;;2.96;83.12
57442;BME280;43284;47.042;15.498;2023-02-18T03:01:08;97563.56;;;2.94;83.31
57442;BME280;43284;47.042;15.498;2023-02-18T03:12:03;97569.63;;;2.91;84.46
57442;BME280;43284;47.042;15.498;2023-02-18T03:17:29;97572.22;;;2.89;84.93
57442;BME280;43284;47.042;15.498;2023-02-18T03:20:06;97576.53;;;2.89;85.58
57442;BME280;43284;47.042;15.498;2023-02-18T03:22:38;97582.53;;;2.91;86.05
57442;BME280;43284;47.042;15.498;2023-02-18T03:25:06;97584.25;;;2.92;86.23
57442;BME280;43284;47.042;15.498;2023-02-18T03:27:47;97585.91;;;2.98;85.84
57442;BME280;43284;47.042;15.498;2023-02-18T03:30:19;97578.06;;;3.04;86.02
57442;BME280;43284;47.042;15.498;2023-02-18T03:32:48;97577.25;;;3.02;85.88
57442;BME280;43284;47.042;15.498;2023-02-18T03:35:16;97579.78;;;3.05;85.88
57442;BME280;43284;47.042;15.498;2023-02-18T03:37:56;97585.81;;;3.05;86.14
57442;BME280;43284;47.042;15.498;2023-02-18T03:40:27;97582.31;;;3.08;86.13
57442;BME280;43284;47.042;15.498;2023-02-18T03:42:53;97587.50;;;3.08;85.64
57442;BME280;43284;47.042;15.498;2023-02-18T03:45:19;97588.31;;;3.10;85.70
57442;BME280;43284;47.042;15.498;2023-02-18T03:47:45;97585.75;;;3.10;84.52
57442;BME280;43284;47.042;15.498;2023-02-18T03:50:10;97583.09;;;3.18;84.56
57442;BME280;43284;47.042;15.498;2023-02-18T03:52:36;97586.47;;;3.21;84.88
57442;BME280;43284;47.042;15.498;2023-02-18T03:55:04;97584.78;;;3.19;85.24
57442;BME280;43284;47.042;15.498;2023-02-18T03:57:29;97583.84;;;3.26;85.67
57442;BME280;43284;47.042;15.498;2023-02-18T03:59:55;97588.19;;;3.24;85.01
57442;BME280;43284;47.042;15.498;2023-02-18T04:02:21;97595.94;;;3.22;85.15
57442;BME280;43284;47.042;15.498;2023-02-18T04:04:46;97583.88;;;3.21;85.55
57442;BME280;43284;47.042;15.498;2023-02-18T04:07:12;97588.19;;;3.22;85.33
57442;BME280;43284;47.042;15.498;2023-02-18T04:09:38;97590.78;;;3.22;85.87
57442;BME280;43284;47.042;15.498;2023-02-18T04:12:04;97581.28;;;3.23;85.71
57442;BME280;43284;47.042;15.498;2023-02-18T04:14:29;97578.69;;;3.24;85.58
57442;BME280;43284;47.042;15.498;2023-02-18T04:16:55;97585.56;;;3.25;85.43
57442;BME280;43284;47.042;15.498;2023-02-18T04:19:21;97584.69;;;3.28;84.72
57442;BME280;43284;47.042;15.498;2023-02-18T04:21:47;97584.63;;;3.33;84.53
57442;BME280;43284;47.042;15.498;2023-02-18T04:24:12;97582.88;;;3.33;84.63
57442;BME280;43284;47.042;15.498;2023-02-18T04:26:38;97587.16;;;3.34;84.75
57442;BME280;43284;47.042;15.498;2023-02-18T04:29:03;97583.66;;;3.40;84.38
57442;BME280;43284;47.042;15.498;2023-02-18T04:31:29;97579.31;;;3.42;84.42
57442;BME280;43284;47.042;15.498;2023-02-18T04:33:55;97585.34;;;3.42;84.01
57442;BME280;43284;47.042;15.498;2023-02-18T04:36:20;97584.50;;;3.39;84.30
57442;BME280;43284;47.042;15.498;2023-02-18T04:38:46;97575.84;;;3.43;84.14
57442;BME280;43284;47.042;15.498;2023-02-18T04:41:11;97574.16;;;3.43;84.12
57442;BME280;43284;47.042;15.498;2023-02-18T04:43:37;97580.97;;;3.47;84.43
57442;BME280;43284;47.042;15.498;2023-02-18T04:46:03;97589.44;;;3.57;84.54
57442;BME280;43284;47.042;15.498;2023-02-18T04:48:29;97590.28;;;3.59;83.98
57442;BME280;43284;47.042;15.498;2023-02-18T04:50:55;97585.06;;;3.64;83.95
57442;BME280;43284;47.042;15.498;2023-02-18T04:53:21;97585.03;;;3.65;84.16
57442;BME280;43284;47.042;15.498;2023-02-18T04:55:51;97574.66;;;3.67;85.58
57442;BME280;43284;47.042;15.498;2023-02-18T04:58:18;97581.56;;;3.66;84.98
57442;BME280;43284;47.042;15.498;2023-02-18T05:00:44;97574.63;;;3.68;84.88
57442;BME280;43284;47.042;15.498;2023-02-18T05:03:12;97572.91;;;3.69;85.04
57442;BME280;43284;47.042;15.498;2023-02-18T05:05:38;97572.03;;;3.70;85.11
57442;BME280;43284;47.042;15.498;2023-02-18T05:08:06;97571.22;;;3.68;84.85
57442;BME280;43284;47.042;15.498;2023-02-18T05:10:32;97570.22;;;3.75;84.59
57442;BME280;43284;47.042;15.498;2023-02-18T05:12:57;97576.31;;;3.74;83.41
57442;BME280;43284;47.042;15.498;2023-02-18T05:15:23;97577.31;;;3.62;84.26
57442;BME280;43284;47.042;15.498;2023-02-18T05:17:49;97577.38;;;3.56;85.06
57442;BME280;43284;47.042;15.498;2023-02-18T05:20:15;97578.22;;;3.60;85.27
57442;BME280;43284;47.042;15.498;2023-02-18T05:22:40;97581.69;;;3.59;84.36
57442;BME280;43284;47.042;15.498;2023-02-18T05:25:07;97581.69;;;3.59;84.75
57442;BME280;43284;47.042;15.498;2023-02-18T05:27:33;97587.78;;;3.55;83.90
57442;BME280;43284;47.042;15.498;2023-02-18T05:29:59;97581.78;;;3.51;83.77
57442;BME280;43284;47.042;15.498;2023-02-18T05:32:25;97576.59;;;3.53;84.07
57442;BME280;43284;47.042;15.498;2023-02-18T05:34:50;97580.09;;;3.48;83.79
57442;BME280;43284;47.042;15.498;2023-02-18T05:37:16;97587.88;;;3.45;84.13
57442;BME280;43284;47.042;15.498;2023-02-18T05:39:43;97590.53;;;3.41;84.08
57442;BME280;43284;47.042;15.498;2023-02-18T05:42:09;97594.91;;;3.37;84.80
57442;BME280;43284;47.042;15.498;2023-02-18T05:44:35;97587.84;;;3.50;84.04
57442;BME280;43284;47.042;15.498;2023-02-18T05:47:06;97595.53;;;3.55;83.58
57442;BME280;43284;47.042;15.498;2023-02-18T05:49:33;97601.75;;;3.41;85.47
57442;BME280;43284;47.042;15.498;2023-02-18T05:52:00;97591.50;;;3.34;85.37
57442;BME280;43284;47.042;15.498;2023-02-18T05:54:26;97601.75;;;3.38;85.78
57442;BME280;43284;47.042;15.498;2023-02-18T05:56:52;97594.91;;;3.37;84.94
57442;BME280;43284;47.042;15.498;2023-02-18T05:59:18;97600.00;;;3.40;85.00
57442;BME280;43284;47.042;15.498;2023-02-18T06:01:44;97597.44;;;3.39;85.81
57442;BME280;43284;47.042;15.498;2023-02-18T06:04:11;97600.13;;;3.33;85.70
57442;BME280;43284;47.042;15.498;2023-02-18T06:06:37;97600.91;;;3.38;85.42
57442;BME280;43284;47.042;15.498;2023-02-18T06:09:04;97600.97;;;3.35;85.69
57442;BME280;43284;47.042;15.498;2023-02-18T06:11:30;97607.03;;;3.30;85.52
57442;BME280;43284;47.042;15.498;2023-02-18T06:13:56;97626.75;;;3.38;85.28
57442;BME280;43284;47.042;15.498;2023-02-18T06:16:21;97614.78;;;3.30;85.58
57442;BME280;43284;47.042;15.498;2023-02-18T06:18:47;97612.28;;;3.24;85.32
57442;BME280;43284;47.042;15.498;2023-02-18T06:21:13;97617.44;;;3.23;85.72
57442;BME280;43284;47.042;15.498;2023-02-18T06:23:38;97604.47;;;3.30;85.54
57442;BME280;43284;47.042;15.498;2023-02-18T06:26:04;97613.13;;;3.23;85.07
57442;BME280;43284;47.042;15.498;2023-02-18T06:28:30;97616.66;;;3.19;85.44
57442;BME280;43284;47.042;15.498;2023-02-18T06:30:55;97626.81;;;3.35;85.80
57442;BME280;43284;47.042;15.498;2023-02-18T06:33:21;97611.44;;;3.22;85.50
57442;BME280;43284;47.042;15.498;2023-02-18T06:35:58;97616.69;;;3.15;86.36
57442;BME280;43284;47.042;15.498;2023-02-18T06:38:25;97622.63;;;3.21;86.50
57442;BME280;43284;47.042;15.498;2023-02-18T06:40:51;97622.63;;;3.21;86.15
57442;BME280;43284;47.042;15.498;2023-02-18T06:43:17;97629.53;;;3.22;85.71
57442;BME280;43284;47.042;15.498;2023-02-18T06:45:44;97621.81;;;3.19;85.74
57442;BME280;43284;47.042;15.498;2023-02-18T06:48:10;97621.94;;;3.07;86.54
57442;BME280;43284;47.042;15.498;2023-02-18T06:50:39;97616.69;;;3.15;86.43
57442;BME280;43284;47.042;15.498;2023-02-18T06:53:05;97619.19;;;3.21;85.97
57442;BME280;43284;47.042;15.498;2023-02-18T06:55:30;97613.13;;;3.23;86.05
57442;BME280;43284;47.042;15.498;2023-02-18T06:57:56;97624.47;;;3.12;86.17
57442;BME280;43284;47.042;15.498;2023-02-18T07:00:22;97620.22;;;3.09;87.01
57442;BME280;43284;47.042;15.498;2023-02-18T07:02:48;97619.31;;;3.13;86.83
57442;BME280;43284;47.042;15.498;2023-02-18T07:05:13;97618.34;;;3.19;86.68
57442;BME280;43284;47.042;15.498;2023-02-18T07:07:39;97622.63;;;3.23;86.37
57442;BME280;43284;47.042;15.498;2023-02-18T07:10:05;97635.47;;;3.30;86.11
57442;BME280;43284;47.042;15.498;2023-02-18T07:12:31;97632.94;;;3.26;86.88
57442;BME280;43284;47.042;15.498;2023-02-18T07:14:57;97630.19;;;3.37;86.74
57442;BME280;43284;47.042;15.498;2023-02-18T07:17:23;97619.84;;;3.40;86.22
57442;BME280;43284;47.042;15.498;2023-02-18T07:19:48;97624.88;;;3.49;85.58
57442;BME280;43284;47.042;15.498;2023-02-18T07:22:14;97636.75;;;3.62;86.06
57442;BME280;43284;47.042;15.498;2023-02-18T07:24:40;97630.75;;;3.60;86.04
57442;BME280;43284;47.042;15.498;2023-02-18T07:27:06;97640.88;;;3.76;85.76
57442;BME280;43284;47.042;15.498;2023-02-18T07:29:32;97632.28;;;3.75;84.87
57442;BME280;43284;47.042;15.498;2023-02-18T07:31:57;97625.28;;;3.85;84.31
57442;BME280;43284;47.042;15.498;2023-02-18T07:34:23;97635.56;;;3.88;84.25
57442;BME280;43284;47.042;15.498;2023-02-18T07:36:48;97639.66;;;4.03;85.24
57442;BME280;43284;47.042;15.498;2023-02-18T07:39:14;97632.75;;;4.03;84.79
57442;BME280;43284;47.042;15.498;2023-02-18T07:41:40;97637.00;;;4.07;84.93
57442;BME280;43284;47.042;15.498;2023-02-18T07:44:06;97657.38;;;4.27;84.78
57442;BME280;43284;47.042;15.498;2023-02-18T07:46:31;97652.28;;;4.24;84.09
57442;BME280;43284;47.042;15.498;2023-02-18T07:48:57;97656.41;;;4.36;84.36
57442;BME280;43284;47.042;15.498;2023-02-18T07:51:23;97639.94;;;4.40;83.55
57442;BME280;43284;47.042;15.498;2023-02-18T07:53:49;97653.56;;;4.50;83.70
57442;BME280;43284;47.042;15.498;2023-02-18T07:56:14;97650.44;;;4.82;82.21
57442;BME280;43284;47.042;15.498;2023-02-18T07:58:40;97646.16;;;4.81;80.70
57442;BME280;43284;47.042;15.498;2023-02-18T08:01:11;97668.31;;;4.96;80.29
57442;BME280;43284;47.042;15.498;2023-02-18T08:03:39;97658.03;;;4.91;80.37
57442;BME280;43284;47.042;15.498;2023-02-18T08:06:06;97656.16;;;5.00;80.37
57442;BME280;43284;47.042;15.498;2023-02-18T08:08:32;97656.59;;;5.23;80.94
57442;BME280;43284;47.042;15.498;2023-02-18T08:11:00;97651.50;;;5.19;81.18
57442;BME280;43284;47.042;15.498;2023-02-18T08:13:32;97657.56;;;5.18;81.09
57442;BME280;43284;47.042;15.498;2023-02-18T08:15:57;97662.44;;;5.33;81.40
57442;BME280;43284;47.042;15.498;2023-02-18T08:18:24;97658.19;;;5.30;81.36
57442;BME280;43284;47.042;15.498;2023-02-18T08:20:51;97671.59;;;5.51;80.47
57442;BME280;43284;47.042;15.498;2023-02-18T08:23:21;97659.34;;;5.59;80.91
57442;BME280;43284;47.042;15.498;2023-02-18T08:25:50;97661.81;;;5.64;80.47
57442;BME280;43284;47.042;15.498;2023-02-18T08:28:19;97670.81;;;5.89;79.66
57442;BME280;43284;47.042;15.498;2023-02-18T08:30:49;97660.41;;;5.89;79.22
57442;BME280;43284;47.042;15.498;2023-02-18T08:33:16;97663.81;;;5.93;79.61
57442;BME280;43284;47.042;15.498;2023-02-18T08:35:43;97661.16;;;5.96;79.38
57442;BME280;43284;47.042;15.498;2023-02-18T08:38:08;97646.34;;;6.01;77.74
57442;BME280;43284;47.042;15.498;2023-02-18T08:40:34;97652.09;;;6.15;79.67
57442;BME280;43284;47.042;15.498;2023-02-18T08:43:00;97653.22;;;6.41;77.21
57442;BME280;43284;47.042;15.498;2023-02-18T08:45:25;97654.16;;;6.38;77.40
57442;BME280;43284;47.042;15.498;2023-02-18T08:47:51;97666.53;;;6.63;76.98
57442;BME280;43284;47.042;15.498;2023-02-18T08:50:17;97650.97;;;6.62;77.22
57442;BME280;43284;47.042;15.498;2023-02-18T08:52:45;97655.66;;;6.83;75.99
57442;BME280;43284;47.042;15.498;2023-02-18T08:55:12;97651.44;;;6.77;76.87
57442;BME280;43284;47.042;15.498;2023-02-18T08:57:37;97649.53;;;6.84;75.63
57442;BME280;43284;47.042;15.498;2023-02-18T09:00:04;97649.19;;;6.98;76.20
57442;BME280;43284;47.042;15.498;2023-02-18T09:02:30;97648.22;;;7.02;74.98
57442;BME280;43284;47.042;15.498;2023-02-18T09:04:56;97646.50;;;7.01;75.15
57442;BME280;43284;47.042;15.498;2023-02-18T09:07:22;97653.72;;;7.22;74.95
57442;BME280;43284;47.042;15.498;2023-02-18T09:09:47;97650.34;;;7.19;75.34
57442;BME280;43284;47.042;15.498;2023-02-18T09:12:13;97648.69;;;7.16;75.54
57442;BME280;43284;47.042;15.498;2023-02-18T09:14:39;97649.13;;;7.32;75.91
57442;BME280;43284;47.042;15.498;2023-02-18T09:17:05;97639.72;;;7.28;75.59
57442;BME280;43284;47.042;15.498;2023-02-18T09:19:31;97641.53;;;7.25;76.24
57442;BME280;43284;47.042;15.498;2023-02-18T09:21:56;97636.69;;;7.43;75.79
57442;BME280;43284;47.042;15.498;2023-02-18T09:24:22;97634.66;;;7.53;75.24
57442;BME280;43284;47.042;15.498;2023-02-18T09:26:49;97635.69;;;7.77;72.63
57442;BME280;43284;47.042;15.498;2023-02-18T09:29:16;97622.97;;;7.68;72.46
57442;BME280;43284;47.042;15.498;2023-02-18T09:31:42;97630.22;;;8.15;68.77
57442;BME280;43284;47.042;15.498;2023-02-18T09:34:08;97641.06;;;8.01;68.10
57442;BME280;43284;47.042;15.498;2023-02-18T09:36:33;97640.88;;;8.07;67.09
57442;BME280;43284;47.042;15.498;2023-02-18T09:38:59;97642.28;;;8.17;65.56
57442;BME280;43284;47.042;15.498;2023-02-18T09:41:44;97641.94;;;8.28;65.65
57442;BME280;43284;47.042;15.498;2023-02-18T09:47:10;97631.56;;;8.55;64.59
57442;BME280;43284;47.042;15.498;2023-02-18T09:49:48;97633.19;;;8.59;63.58
57442;BME280;43284;47.042;15.498;2023-02-18T09:52:22;97622.16;;;9.02;62.53
57442;BME280;43284;47.042;15.498;2023-02-18T09:54:50;97626.75;;;8.94;62.84
57442;BME280;43284;47.042;15.498;2023-02-18T09:57:42;97624.41;;;9.37;61.83
57442;BME280;43284;47.042;15.498;2023-02-18T10:00:38;97619.56;;;9.51;60.87
57442;BME280;43284;47.042;15.498;2023-02-18T10:03:16;97613.47;;;9.51;59.25
57442;BME280;43284;47.042;15.498;2023-02-18T10:05:59;97613.91;;;9.62;58.49
57442;BME280;43284;47.042;15.498;2023-02-18T10:08:29;97607.13;;;9.58;57.75
57442;BME280;43284;47.042;15.498;2023-02-18T10:10:57;97605.38;;;10.04;57.98
57442;BME280;43284;47.042;15.498;2023-02-18T10:13:26;97593.56;;;9.94;58.60
57442;BME280;43284;47.042;15.498;2023-02-18T10:15:53;97600.25;;;10.45;57.05
57442;BME280;43284;47.042;15.498;2023-02-18T10:18:30;97598.50;;;10.45;56.73
57442;BME280;43284;47.042;15.498;2023-02-18T10:21:03;97594.44;;;10.38;56.50
57442;BME280;43284;47.042;15.498;2023-02-18T10:23:32;97585.53;;;10.42;56.36
57442;BME280;43284;47.042;15.498;2023-02-18T10:26:02;97579.75;;;10.97;53.57
57442;BME280;43284;47.042;15.498;2023-02-18T10:28:30;97573.34;;;11.04;53.32
57442;BME280;43284;47.042;15.498;2023-02-18T10:30:59;97566.59;;;11.38;52.35
57442;BME280;43284;47.042;15.498;2023-02-18T10:33:39;97561.38;;;11.57;50.95
57442;BME280;43284;47.042;15.498;2023-02-18T10:36:35;97556.38;;;11.90;50.91
57442;BME280;43284;47.042;15.498;2023-02-18T10:48:18;97542.53;;;12.06;51.96
57442;BME280;43284;47.042;15.498;2023-02-18T10:50:30;97541.31;;;12.30;52.09
57442;BME280;43284;47.042;15.498;2023-02-18T10:53:01;97544.66;;;12.34;50.54
57442;BME280;43284;47.042;15.498;2023-02-18T10:55:43;97532.38;;;12.52;51.25
57442;BME280;43284;47.042;15.498;2023-02-18T10:58:41;97525.56;;;12.83;49.82
57442;BME280;43284;47.042;15.498;2023-02-18T11:01:20;97518.00;;;12.94;48.77
57442;BME280;43284;47.042;15.498;2023-02-18T11:03:47;97515.75;;;13.04;49.22
57442;BME280;43284;47.042;15.498;2023-02-18T11:08:46;97499.06;;;13.05;49.79
57442;BME280;43284;47.042;15.498;2023-02-18T11:11:23;97496.59;;;13.35;48.27
57442;BME280;43284;47.042;15.498;2023-02-18T11:13:56;97491.41;;;13.33;48.97
57442;BME280;43284;47.042;15.498;2023-02-18T11:16:24;97483.81;;;13.45;49.70
57442;BME280;43284;47.042;15.498;2023-02-18T11:19:00;97470.00;;;13.57;48.98
57442;BME280;43284;47.042;15.498;2023-02-18T11:21:33;97471.59;;;13.59;47.93
57442;BME280;43284;47.042;15.498;2023-02-18T11:24:07;97466.28;;;13.61;48.90
57442;BME280;43284;47.042;15.498;2023-02-18T11:26:35;97460.94;;;13.63;48.00
57442;BME280;43284;47.042;15.498;2023-02-18T11:31:42;97435.31;;;13.82;49.02
57442;BME280;43284;47.042;15.498;2023-02-18T11:34:15;97429.94;;;13.99;47.16
57442;BME280;43284;47.042;15.498;2023-02-18T11:36:41;97429.25;;;13.96;47.58
57442;BME280;43284;47.042;15.498;2023-02-18T11:39:25;97420.78;;;14.21;47.12
57442;BME280;43284;47.042;15.498;2023-02-18T11:42:01;97413.53;;;14.10;47.68
57442;BME280;43284;47.042;15.498;2023-02-18T11:44:30;97416.25;;;14.09;46.83
57442;BME280;43284;47.042;15.498;2023-02-18T11:47:04;97401.03;;;13.99;48.25
57442;BME280;43284;47.042;15.498;2023-02-18T11:49:32;97406.88;;;14.19;48.26
57442;BME280;43284;47.042;15.498;2023-02-18T11:52:18;97394.72;;;14.32;47.10
57442;BME280;43284;47.042;15.498;2023-02-18T11:54:59;97394.59;;;14.19;47.08
57442;BME280;43284;47.042;15.498;2023-02-18T11:57:27;97386.22;;;14.27;46.69
57442;BME280;43284;47.042;15.498;2023-02-18T11:59:53;97379.19;;;14.28;47.55
57442;BME280;43284;47.042;15.498;2023-02-18T12:05:21;97370.41;;;14.57;46.26
57442;BME280;43284;47.042;15.498;2023-02-18T12:10:55;97353.00;;;14.83;46.51
57442;BME280;43284;47.042;15.498;2023-02-18T12:13:33;97351.72;;;14.76;46.38
57442;BME280;43284;47.042;15.498;2023-02-18T12:18:48;97347.00;;;14.96;47.77
57442;BME280;43284;47.042;15.498;2023-02-18T12:29:40;97300.03;;;15.30;47.54
57442;BME280;43284;47.042;15.498;2023-02-18T12:35:51;97295.25;;;15.49;46.75
57442;BME280;43284;47.042;15.498;2023-02-18T12:38:52;97292.34;;;15.66;47.06
57442;BME280;43284;47.042;15.498;2023-02-18T12:49:18;97267.94;;;16.03;44.19
57442;BME280;43284;47.042;15.498;2023-02-18T12:54:35;97268.34;;;16.22;43.20
57442;BME280;43284;47.042;15.498;2023-02-18T13:08:25;97256.66;;;15.88;43.30
57442;BME280;43284;47.042;15.498;2023-02-18T13:13:36;97248.09;;;15.72;43.92
57442;BME280;43284;47.042;15.498;2023-02-18T13:16:08;97241.16;;;15.31;44.44
57442;BME280;43284;47.042;15.498;2023-02-18T13:18:38;97250.09;;;15.28;45.19
57442;BME280;43284;47.042;15.498;2023-02-18T13:21:11;97236.50;;;15.34;45.29
57442;BME280;43284;47.042;15.498;2023-02-18T13:26:22;97224.22;;;15.48;44.93
57442;BME280;43284;47.042;15.498;2023-02-18T13:31:54;97230.94;;;15.39;45.86
57442;BME280;43284;47.042;15.498;2023-02-18T13:34:49;97227.28;;;14.74;45.57
57442;BME280;43284;47.042;15.498;2023-02-18T13:40:24;97213.47;;;14.71;47.16
57442;BME280;43284;47.042;15.498;2023-02-18T13:42:52;97203.53;;;14.61;46.81
57442;BME280;43284;47.042;15.498;2023-02-18T13:45:24;97205.25;;;14.34;47.60
57442;BME280;43284;47.042;15.498;2023-02-18T13:47:51;97195.19;;;14.40;48.36
57442;BME280;43284;47.042;15.498;2023-02-18T13:58:24;97190.75;;;13.71;49.22
57442;BME280;43284;47.042;15.498;2023-02-18T14:06:32;97184.38;;;13.75;49.16
57442;BME280;43284;47.042;15.498;2023-02-18T14:11:38;97187.75;;;13.77;49.33
57442;BME280;43284;47.042;15.498;2023-02-18T14:14:30;97184.00;;;13.67;48.91
57442;BME280;43284;47.042;15.498;2023-02-18T14:22:36;97175.94;;;13.84;49.19
57442;BME280;43284;47.042;15.498;2023-02-18T14:27:36;97166.72;;;13.48;49.51
57442;BME280;43284;47.042;15.498;2023-02-18T14:30:16;97168.31;;;13.36;49.42
57442;BME280;43284;47.042;15.498;2023-02-18T14:32:44;97167.69;;;13.17;49.81
57442;BME280;43284;47.042;15.498;2023-02-18T14:43:17;97146.91;;;13.28;49.08
57442;BME280;43284;47.042;15.498;2023-02-18T14:51:26;97151.94;;;13.17;49.85
57442;BME280;43284;47.042;15.498;2023-02-18T14:53:53;97161.63;;;13.01;50.92
57442;BME280;43284;47.042;15.498;2023-02-18T14:56:20;97144.97;;;13.02;51.12
57442;BME280;43284;47.042;15.498;2023-02-18T14:58:55;97143.66;;;12.78;50.87
57442;BME280;43284;47.042;15.498;2023-02-18T15:01:26;97136.91;;;12.74;52.15
57442;BME280;43284;47.042;15.498;2023-02-18T15:03:53;97124.47;;;12.78;51.82
57442;BME280;43284;47.042;15.498;2023-02-18T15:08:48;97131.97;;;12.54;52.61
57442;BME280;43284;47.042;15.498;2023-02-18T15:11:15;97140.94;;;12.50;52.30
57442;BME280;43284;47.042;15.498;2023-02-18T15:13:43;97129.03;;;12.44;52.88
57442;BME280;43284;47.042;15.498;2023-02-18T15:16:17;97137.31;;;12.36;52.53
57442;BME280;43284;47.042;15.498;2023-02-18T15:18:50;97129.97;;;12.27;52.42
57442;BME280;43284;47.042;15.498;2023-02-18T15:21:24;97118.16;;;12.20;53.34
57442;BME280;43284;47.042;15.498;2023-02-18T15:23:52;97122.78;;;11.99;54.14
57442;BME280;43284;47.042;15.498;2023-02-18T15:26:19;97115.00;;;11.98;54.16
57442;BME280;43284;47.042;15.498;2023-02-18T15:29:03;97121.44;;;11.92;54.32
57442;BME280;43284;47.042;15.498;2023-02-18T15:31:33;97120.13;;;11.83;54.23
57442;BME280;43284;47.042;15.498;2023-02-18T15:34:00;97118.94;;;11.73;54.95
57442;BME280;43284;47.042;15.498;2023-02-18T15:36:26;97112.50;;;11.63;55.43
57442;BME280;43284;47.042;15.498;2023-02-18T15:38:52;97119.75;;;11.58;55.06